Time;durP1;ratioP1;P1;durP2;ratioP2;P2;SDS_P1;SDS_P2;PMS_P1;PMS_P2;Temp;Humidity;BMP_temperature;BMP_pressure;BME280_temperature;BME280_humidity;BME280_pressure;Samples;Min_cycle;Max_cycle;Signal;HPM_P1;HPM_P2
2021/04/21 00:00:27;;;;;;;33.60;23.35;;;;;;;3.53;100.00;95681.94;1032266;28;20038;-70
2021/04/21 00:01:00;;;;;;;33.95;23.02;;;;;;;3.54;100.00;95680.94;1020491;29;20039;-69
2021/04/21 00:01:31;;;;;;;37.48;24.30;;;;;;;3.52;100.00;95682.97;1019355;29;20036;-69
2021/04/21 00:02:01;;;;;;;37.70;24.73;;;;;;;3.53;100.00;95684.56;1015941;29;20081;-69
2021/04/21 00:02:31;;;;;;;37.60;24.85;;;;;;;3.54;100.00;95683.53;1023095;29;20138;-69
2021/04/21 00:03:02;;;;;;;34.13;23.83;;;;;;;3.55;100.00;95679.13;1023155;29;20104;-69
2021/04/21 00:03:33;;;;;;;39.60;25.10;;;;;;;3.57;100.00;95678.94;1026848;28;20035;-69
2021/04/21 00:04:03;;;;;;;36.10;23.60;;;;;;;3.51;100.00;95681.38;1022928;29;20035;-70
2021/04/21 00:04:34;;;;;;;36.13;23.48;;;;;;;3.58;100.00;95677.91;1023034;29;20038;-69
2021/04/21 00:05:06;;;;;;;34.30;23.08;;;;;;;3.61;100.00;95674.88;1018585;29;20033;-69
2021/04/21 00:05:36;;;;;;;34.92;23.34;;;;;;;3.61;100.00;95670.47;1021318;28;20362;-69
2021/04/21 00:06:07;;;;;;;35.03;23.88;;;;;;;3.63;100.00;95678.84;1027331;28;20042;-70
2021/04/21 00:06:39;;;;;;;36.70;24.58;;;;;;;3.63;100.00;95676.25;1022985;28;20031;-70
2021/04/21 00:07:09;;;;;;;36.10;24.38;;;;;;;3.65;100.00;95676.00;1022511;28;20043;-69
2021/04/21 00:07:39;;;;;;;34.72;23.02;;;;;;;3.65;100.00;95676.78;1019294;28;20039;-70
2021/04/21 00:08:10;;;;;;;32.78;22.05;;;;;;;3.61;100.00;95664.50;1023176;29;20024;-70
2021/04/21 00:08:40;;;;;;;35.58;23.38;;;;;;;3.62;100.00;95660.88;1018921;29;20636;-69
2021/04/21 00:09:14;;;;;;;34.25;23.98;;;;;;;3.68;100.00;95668.56;1013720;29;20433;-69
2021/04/21 00:09:48;;;;;;;34.50;23.44;;;;;;;3.68;100.00;95665.19;1023341;29;20023;-69
2021/04/21 00:10:20;;;;;;;40.30;25.50;;;;;;;3.67;100.00;95668.81;1026910;28;20023;-69
2021/04/21 00:10:50;;;;;;;37.96;24.50;;;;;;;3.67;100.00;95663.63;1031763;28;20033;-69
2021/04/21 00:11:21;;;;;;;35.30;24.40;;;;;;;3.61;100.00;95659.31;1022726;28;20711;-69
2021/04/21 00:11:51;;;;;;;35.05;24.27;;;;;;;3.68;100.00;95663.38;1019370;28;20536;-69
2021/04/21 00:12:22;;;;;;;41.40;25.55;;;;;;;3.63;100.00;95663.28;1026843;28;20031;-69
2021/04/21 00:12:54;;;;;;;38.88;24.83;;;;;;;3.67;100.00;95663.63;1022461;28;20019;-70
2021/04/21 00:13:24;;;;;;;38.50;24.22;;;;;;;3.69;100.00;95666.78;1018846;29;20030;-69
2021/04/21 00:13:55;;;;;;;34.47;24.15;;;;;;;3.62;100.00;95651.31;1019004;29;20565;-70
2021/04/21 00:14:26;;;;;;;39.35;25.15;;;;;;;3.71;100.00;95660.34;1018842;29;20039;-69
2021/04/21 00:14:56;;;;;;;36.58;23.77;;;;;;;3.63;100.00;95652.91;1015613;28;20035;-70
2021/04/21 00:15:26;;;;;;;40.17;25.02;;;;;;;3.70;100.00;95655.41;1021924;29;20038;-70
2021/04/21 00:15:57;;;;;;;35.50;24.65;;;;;;;3.72;100.00;95661.13;1018350;29;20036;-70
2021/04/21 00:16:28;;;;;;;37.83;25.77;;;;;;;3.69;100.00;95661.56;1026882;28;20034;-70
2021/04/21 00:17:00;;;;;;;40.24;24.92;;;;;;;3.63;100.00;95652.91;1026848;28;20169;-70
2021/04/21 00:17:30;;;;;;;38.74;26.30;;;;;;;3.62;100.00;95656.50;1030519;28;20158;-69
2021/04/21 00:18:03;;;;;;;38.58;24.83;;;;;;;3.62;100.00;95655.69;1030245;28;20106;-70
2021/04/21 00:18:34;;;;;;;38.96;25.68;;;;;;;3.63;100.00;95658.09;1023303;28;20071;-69
2021/04/21 00:19:05;;;;;;;36.26;24.54;;;;;;;3.56;100.00;95646.22;1015541;29;20070;-70
2021/04/21 00:19:36;;;;;;;39.60;25.18;;;;;;;3.59;100.00;95650.94;1014742;29;20574;-70
2021/04/21 00:20:07;;;;;;;41.46;26.72;;;;;;;3.58;100.00;95654.56;1015096;29;20120;-69
2021/04/21 00:20:38;;;;;;;38.35;25.63;;;;;;;3.62;100.00;95660.88;1023163;29;20146;-69
2021/04/21 00:21:08;;;;;;;39.00;26.13;;;;;;;3.52;100.00;95648.44;1022812;29;20035;-70
2021/04/21 00:21:38;;;;;;;42.30;27.08;;;;;;;3.61;100.00;95651.53;1015374;29;20521;-70
2021/04/21 00:22:09;;;;;;;40.30;26.70;;;;;;;3.67;100.00;95658.44;1023105;29;20471;-69
2021/04/21 00:22:40;;;;;;;38.10;26.48;;;;;;;3.67;100.00;95653.25;1022716;28;20032;-69
2021/04/21 00:23:11;;;;;;;38.00;25.35;;;;;;;3.65;100.00;95652.66;1027186;28;20072;-69
2021/04/21 00:23:42;;;;;;;39.05;26.27;;;;;;;3.66;100.00;95651.66;1026787;28;20072;-69
2021/04/21 00:24:12;;;;;;;40.22;24.95;;;;;;;3.69;100.00;95639.03;1023332;28;20473;-70
2021/04/21 00:24:43;;;;;;;41.92;25.90;;;;;;;3.74;100.00;95651.34;1026031;28;20053;-70
2021/04/21 00:25:13;;;;;;;39.78;27.80;;;;;;;3.65;100.00;95642.28;1018242;29;20553;-69
2021/04/21 00:25:44;;;;;;;43.00;28.00;;;;;;;3.72;100.00;95653.34;1021939;29;20067;-69
2021/04/21 00:26:16;;;;;;;42.70;27.13;;;;;;;3.77;100.00;95648.31;1022432;28;20039;-69
2021/04/21 00:26:47;;;;;;;38.18;25.92;;;;;;;3.72;100.00;95646.38;1022900;29;20063;-69
2021/04/21 00:27:18;;;;;;;42.17;27.58;;;;;;;3.72;100.00;95651.59;1023293;29;20015;-69
2021/04/21 00:27:51;;;;;;;39.67;26.88;;;;;;;3.69;100.00;95651.19;1026735;28;20046;-69
2021/04/21 00:28:23;;;;;;;48.78;29.14;;;;;;;3.67;100.00;95650.66;1027327;28;20029;-70
2021/04/21 00:28:54;;;;;;;45.30;28.72;;;;;;;3.65;100.00;95656.03;1026244;28;20027;-70
2021/04/21 00:29:24;;;;;;;43.47;27.25;;;;;;;3.58;100.00;95644.19;1020249;29;20036;-69
2021/04/21 00:30:01;;;;;;;43.60;28.05;;;;;;;3.64;100.00;95653.69;1022778;28;20469;-70
2021/04/21 00:30:32;;;;;;;40.72;26.86;;;;;;;3.63;100.00;95652.91;1022593;28;20174;-70
2021/04/21 00:31:05;;;;;;;40.84;26.22;;;;;;;3.68;100.00;95649.63;1026618;28;20018;-70
2021/04/21 00:31:35;;;;;;;44.06;29.28;;;;;;;3.69;100.00;95654.63;1026770;28;20023;-70
2021/04/21 00:32:06;;;;;;;45.47;28.52;;;;;;;3.69;100.00;95651.19;1022754;29;20027;-70
2021/04/21 00:32:48;;;;;;;43.92;28.00;;;;;;;3.66;100.00;95651.66;1026801;28;20035;-70
2021/04/21 00:33:18;;;;;;;39.60;26.92;;;;;;;3.66;100.00;95646.47;1026001;28;20030;-70
2021/04/21 00:33:53;;;;;;;42.50;26.77;;;;;;;3.68;100.00;95649.63;1026787;28;20062;-70
2021/04/21 00:34:23;;;;;;;43.68;28.36;;;;;;;3.70;100.00;95652.81;1026292;28;20114;-69
2021/04/21 00:34:57;;;;;;;40.13;27.10;;;;;;;3.71;100.00;95649.97;1021356;29;20544;-69
2021/04/21 00:35:39;;;;;;;40.64;27.00;;;;;;;3.75;100.00;95650.31;1025901;28;20014;-70
2021/04/21 00:36:12;;;;;;;41.40;26.62;;;;;;;3.65;100.00;95639.69;1023665;28;20036;-69
2021/04/21 00:36:43;;;;;;;43.74;28.58;;;;;;;3.67;100.00;95650.66;1026664;28;20530;-70
2021/04/21 00:37:13;;;;;;;42.28;28.20;;;;;;;3.67;100.00;95645.47;1022791;29;20035;-70
2021/04/21 00:37:44;;;;;;;41.45;27.63;;;;;;;3.64;100.00;95648.50;1022872;28;20027;-70
2021/04/21 00:38:18;;;;;;;44.60;29.58;;;;;;;3.54;100.00;95639.44;1022747;28;20501;-69
2021/04/21 00:38:49;;;;;;;43.12;28.48;;;;;;;3.58;100.00;95641.59;1018629;29;20027;-70
2021/04/21 00:39:19;;;;;;;45.38;29.65;;;;;;;3.49;100.00;95635.94;1022276;29;20041;-67
2021/04/21 00:39:49;;;;;;;43.20;28.15;;;;;;;3.51;100.00;95642.47;1030344;28;20026;-69
2021/04/21 00:40:26;;;;;;;43.63;29.50;;;;;;;3.46;100.00;95650.13;1030745;28;20403;-70
2021/04/21 00:41:21;;;;;;;48.12;30.88;;;;;;;3.42;100.00;95646.41;1019188;29;20043;-70
2021/04/21 00:42:00;;;;;;;45.56;28.96;;;;;;;3.34;100.00;95643.31;1022911;29;20037;-70
2021/04/21 00:42:45;;;;;;;44.88;28.24;;;;;;;3.26;100.00;95641.81;1020659;28;20110;-70
2021/04/21 00:43:42;;;;;;;40.52;25.64;;;;;;;3.17;100.00;95645.72;1028366;28;20038;-70
2021/04/21 00:44:25;;;;;;;44.14;27.72;;;;;;;3.13;100.00;95649.75;1028115;28;20117;-69
2021/04/21 00:45:08;;;;;;;43.74;25.20;;;;;;;3.07;100.00;95639.22;1019504;28;20031;-71
2021/04/21 00:45:42;;;;;;;51.20;28.52;;;;;;;3.03;100.00;95637.28;1014723;29;20024;-69
2021/04/21 00:46:21;;;;;;;42.60;26.16;;;;;;;2.97;100.00;95633.75;1014832;29;20032;-69
2021/04/21 00:46:57;;;;;;;45.78;27.48;;;;;;;2.89;100.00;95626.28;1025277;28;20094;-69
2021/04/21 00:47:50;;;;;;;42.90;27.28;;;;;;;2.90;100.00;95646.00;1018944;29;20046;-69
2021/04/21 00:48:47;;;;;;;43.54;27.54;;;;;;;2.84;100.00;95639.09;1014017;29;20119;-71
2021/04/21 00:49:20;;;;;;;47.02;28.38;;;;;;;2.83;100.00;95643.47;1021928;28;20031;-69
2021/04/21 00:50:00;;;;;;;46.74;28.60;;;;;;;2.81;100.00;95636.94;1028285;28;20018;-68
2021/04/21 00:50:56;;;;;;;53.15;30.48;;;;;;;2.87;100.00;95638.66;1030933;28;20604;-70
2021/04/21 00:51:42;;;;;;;49.66;29.48;;;;;;;2.88;100.00;95639.44;1018866;28;20028;-69
2021/04/21 00:52:25;;;;;;;46.52;29.86;;;;;;;2.93;100.00;95642.97;1016495;29;20028;-70
2021/04/21 00:53:17;;;;;;;47.94;30.02;;;;;;;2.96;100.00;95639.97;1022693;29;20027;-70
2021/04/21 00:53:51;;;;;;;49.94;30.68;;;;;;;3.02;100.00;95639.09;1030833;28;20438;-68
2021/04/21 00:54:46;;;;;;;51.90;32.72;;;;;;;3.00;100.00;95637.72;1018826;29;20111;-70
2021/04/21 00:55:21;;;;;;;48.48;29.56;;;;;;;2.98;100.00;95634.56;1021863;28;20027;-70
2021/04/21 00:56:02;;;;;;;48.98;30.86;;;;;;;3.07;100.00;95644.41;1031188;28;20018;-70
2021/04/21 00:56:36;;;;;;;47.38;29.86;;;;;;;3.06;100.00;95627.28;1038735;28;20033;-69
2021/04/21 00:57:17;;;;;;;46.12;29.90;;;;;;;3.30;100.00;95648.13;1032122;28;20037;-70
2021/04/21 00:58:11;;;;;;;48.15;30.35;;;;;;;3.18;100.00;95623.94;1030170;28;20018;-69
2021/04/21 00:59:09;;;;;;;52.44;29.94;;;;;;;3.26;100.00;95645.19;1027790;28;20125;-70
2021/04/21 00:59:59;;;;;;;53.40;30.48;;;;;;;3.24;100.00;95643.81;1033489;28;20602;-70
2021/04/21 01:00:31;;;;;;;50.24;30.76;;;;;;;3.15;100.00;95645.13;1030361;28;20034;-69
2021/04/21 01:01:02;;;;;;;47.26;28.68;;;;;;;3.06;100.00;95632.47;1022967;29;20086;-70
2021/04/21 01:01:32;;;;;;;49.90;31.77;;;;;;;3.10;100.00;95637.22;1026976;28;20649;-70
2021/04/21 01:02:03;;;;;;;49.92;30.95;;;;;;;3.07;100.00;95643.63;1024226;28;20019;-69
2021/04/21 01:02:35;;;;;;;48.78;30.40;;;;;;;3.03;100.00;95642.47;1022774;28;20038;-69
2021/04/21 01:03:16;;;;;;;49.96;29.98;;;;;;;2.98;100.00;95640.53;1023205;29;20026;-70
2021/04/21 01:03:46;;;;;;;;;;;;;;;2.97;100.00;95638.16;1025216;28;20027;-70
2021/04/21 01:04:16;;;;;;;;;;;;;;;2.99;100.00;95642.13;1027594;28;19914;-70
2021/04/21 01:04:47;;;;;;;49.93;29.37;;;;;;;3.10;100.00;95634.63;1022931;29;19915;-69
2021/04/21 01:05:21;;;;;;;49.13;29.83;;;;;;;2.99;100.00;95626.56;1014319;29;20083;-70
2021/04/21 01:06:01;;;;;;;51.14;30.16;;;;;;;3.07;100.00;95639.22;1025928;28;20022;-70
2021/04/21 01:06:38;;;;;;;45.42;28.63;;;;;;;3.09;100.00;95639.03;1022712;28;20090;-69
2021/04/21 01:07:10;;;;;;;48.76;29.76;;;;;;;2.99;100.00;95634.34;1022782;28;20023;-69
2021/04/21 01:07:41;;;;;;;49.48;31.64;;;;;;;2.96;100.00;95632.19;1021137;29;20060;-69
2021/04/21 01:08:14;;;;;;;48.20;28.92;;;;;;;2.99;100.00;95641.34;1023243;29;20030;-69
2021/04/21 01:08:46;;;;;;;55.10;33.42;;;;;;;2.95;100.00;95635.78;1026925;28;20026;-69
2021/04/21 01:09:17;;;;;;;56.24;34.04;;;;;;;2.93;100.00;95649.97;1026723;28;20042;-71
2021/04/21 01:09:49;;;;;;;60.15;33.88;;;;;;;2.89;100.00;95646.22;1023122;29;20023;-70
2021/04/21 01:10:20;;;;;;;55.68;32.98;;;;;;;2.83;100.00;95640.91;1019586;29;20501;-71
2021/04/21 01:11:09;;;;;;;49.10;31.08;;;;;;;2.76;100.00;95641.97;1022248;29;20023;-70
2021/04/21 01:12:12;;;;;;;48.62;29.38;;;;;;;2.74;100.00;95646.56;1022857;29;20043;-70
2021/04/21 01:12:47;;;;;;;44.34;28.60;;;;;;;2.68;100.00;95644.84;1024141;28;20043;-69
2021/04/21 01:13:17;;;;;;;43.36;27.44;;;;;;;2.64;100.00;95639.28;1028024;28;20452;-70
2021/04/21 01:13:51;;;;;;;51.08;29.67;;;;;;;2.60;100.00;95646.72;1026232;28;20023;-69
2021/04/21 01:14:25;;;;;;;48.28;28.88;;;;;;;2.57;100.00;95649.72;1026041;28;20097;-69
2021/04/21 01:14:55;;;;;;;45.18;28.06;;;;;;;2.54;100.00;95646.78;1030606;28;20665;-69
2021/04/21 01:15:25;;;;;;;47.80;30.88;;;;;;;2.50;100.00;95643.81;1022283;29;20030;-70
2021/04/21 01:15:56;;;;;;;48.63;28.65;;;;;;;2.46;100.00;95647.06;1026116;28;20617;-69
2021/04/21 01:16:28;;;;;;;46.72;29.75;;;;;;;2.45;100.00;95646.28;1022845;29;20035;-69
2021/04/21 01:17:03;;;;;;;53.10;31.46;;;;;;;2.39;100.00;95643.75;1011024;29;20108;-69
2021/04/21 01:17:34;;;;;;;52.30;32.26;;;;;;;2.40;100.00;95647.91;1026027;28;20027;-69
2021/04/21 01:18:05;;;;;;;49.28;31.83;;;;;;;2.35;100.00;95651.16;1022378;29;20051;-70
2021/04/21 01:18:35;;;;;;;48.92;28.77;;;;;;;2.32;100.00;95641.22;1026495;28;20026;-69
2021/04/21 01:19:30;;;;;;;51.72;30.88;;;;;;;2.29;100.00;95645.00;1023692;28;20055;-69
2021/04/21 01:20:03;;;;;;;51.72;30.94;;;;;;;2.27;100.00;95648.81;1026601;28;20035;-70
2021/04/21 01:20:56;;;;;;;48.32;28.80;;;;;;;2.28;100.00;95643.44;1027440;28;20034;-69
2021/04/21 01:21:57;;;;;;;55.74;31.14;;;;;;;2.23;100.00;95647.66;1022617;29;20027;-70
2021/04/21 01:22:42;;;;;;;54.08;32.10;;;;;;;2.23;100.00;95647.66;1018163;28;20425;-70
2021/04/21 01:23:39;;;;;;;57.18;32.70;;;;;;;2.21;100.00;95649.66;1026987;28;20019;-69
2021/04/21 01:24:41;;;;;;;54.80;30.78;;;;;;;2.16;100.00;95646.91;1026924;28;20019;-69
2021/04/21 01:25:27;;;;;;;56.36;32.04;;;;;;;2.08;100.00;95635.84;1025607;28;20023;-70
2021/04/21 01:26:09;;;;;;;56.34;30.66;;;;;;;2.15;100.00;95645.31;1025189;28;20015;-69
2021/04/21 01:26:45;;;;;;;55.90;30.42;;;;;;;2.14;100.00;95644.53;1020458;29;20082;-70
2021/04/21 01:27:20;;;;;;;48.56;28.98;;;;;;;2.13;100.00;95643.75;1022835;29;20030;-70
2021/04/21 01:28:05;;;;;;;53.76;30.88;;;;;;;2.10;100.00;95643.38;1027490;28;20029;-70
2021/04/21 01:28:37;;;;;;;54.96;31.14;;;;;;;2.02;100.00;95631.50;1026427;28;20286;-69
2021/04/21 01:29:08;;;;;;;48.22;29.78;;;;;;;2.08;100.00;95646.19;1019087;29;20015;-70
2021/04/21 01:29:43;;;;;;;57.28;31.83;;;;;;;2.05;100.00;95636.25;1018545;29;20015;-69
2021/04/21 01:30:15;;;;;;;49.66;29.76;;;;;;;2.05;100.00;95644.00;1023032;29;20030;-70
2021/04/21 01:30:45;;;;;;;50.36;29.28;;;;;;;2.04;100.00;95639.81;1010757;29;20021;-69
2021/04/21 01:31:16;;;;;;;55.08;31.70;;;;;;;1.93;100.00;95630.16;1026458;28;20468;-70
2021/04/21 01:31:47;;;;;;;54.92;33.15;;;;;;;1.94;100.00;95629.16;1023048;29;20083;-69
2021/04/21 01:32:26;;;;;;;53.30;31.82;;;;;;;1.98;100.00;95642.47;1023076;29;20516;-70
2021/04/21 01:33:04;;;;;;;56.74;33.08;;;;;;;1.91;100.00;95639.13;1021953;28;20059;-70
2021/04/21 01:33:35;;;;;;;59.36;32.26;;;;;;;1.91;100.00;95639.91;1032065;28;20117;-70
2021/04/21 01:34:05;;;;;;;53.05;31.60;;;;;;;1.89;100.00;95639.34;1028308;28;20027;-70
2021/04/21 01:34:36;;;;;;;54.63;30.42;;;;;;;1.82;100.00;95633.44;1021316;28;20035;-70
2021/04/21 01:35:07;;;;;;;52.12;31.54;;;;;;;1.86;100.00;95640.56;1026141;28;20030;-70
2021/04/21 01:35:38;;;;;;;55.13;32.80;;;;;;;1.84;100.00;95639.19;1022761;28;20024;-69
2021/04/21 01:36:08;;;;;;;52.33;31.42;;;;;;;1.81;100.00;95639.59;1022636;29;20054;-69
2021/04/21 01:36:39;;;;;;;54.53;31.90;;;;;;;1.83;100.00;95633.22;1017529;29;20118;-69
2021/04/21 01:37:13;;;;;;;48.65;30.67;;;;;;;1.80;100.00;95632.84;1026824;28;20034;-69
2021/04/21 01:37:44;;;;;;;51.56;30.86;;;;;;;1.84;100.00;95639.97;1030599;28;20073;-70
2021/04/21 01:38:14;;;;;;;51.15;31.25;;;;;;;1.84;100.00;95644.34;1026268;28;20535;-69
2021/04/21 01:38:44;;;;;;;51.78;31.63;;;;;;;1.83;100.00;95638.38;1014808;29;20422;-70
2021/04/21 01:39:15;;;;;;;49.60;30.75;;;;;;;1.80;100.00;95635.44;1022686;28;20031;-70
2021/04/21 01:39:53;;;;;;;55.85;32.88;;;;;;;1.83;100.00;95642.78;1025920;28;20033;-69
2021/04/21 01:40:32;;;;;;;50.12;31.02;;;;;;;1.81;100.00;95639.59;1010870;29;20475;-70
2021/04/21 01:41:04;;;;;;;52.72;30.90;;;;;;;1.81;100.00;95642.19;1022981;28;20118;-69
2021/04/21 01:41:38;;;;;;;51.12;29.96;;;;;;;1.80;100.00;95638.03;1026088;28;20109;-70
2021/04/21 01:42:10;;;;;;;52.88;31.88;;;;;;;1.75;100.00;95630.91;1028469;28;20528;-70
2021/04/21 01:42:42;;;;;;;50.50;31.74;;;;;;;1.76;100.00;95642.03;1019107;29;20370;-69
2021/04/21 01:43:18;;;;;;;58.36;31.98;;;;;;;1.73;100.00;95637.28;1023246;28;20058;-70
2021/04/21 01:43:52;;;;;;;52.94;31.32;;;;;;;1.71;100.00;95639.25;1022256;28;20497;-69
2021/04/21 01:44:31;;;;;;;59.60;34.14;;;;;;;1.68;100.00;95639.69;1020262;29;20418;-69
2021/04/21 01:45:01;;;;;;;48.16;28.58;;;;;;;1.69;100.00;95631.72;1013081;29;20035;-66
2021/04/21 01:45:32;;;;;;;57.17;33.70;;;;;;;1.65;100.00;95635.75;1013916;29;20027;-69
2021/04/21 01:46:02;;;;;;;54.80;32.10;;;;;;;1.66;100.00;95634.72;1025761;28;20317;-69
2021/04/21 01:46:37;;;;;;;56.03;32.42;;;;;;;1.67;100.00;95633.72;1025636;28;20027;-69
2021/04/21 01:47:13;;;;;;;61.20;36.44;;;;;;;1.70;100.00;95637.69;1019134;29;20042;-69
2021/04/21 01:47:43;;;;;;;61.98;36.72;;;;;;;1.71;100.00;95636.69;1016071;29;20031;-69
2021/04/21 01:48:18;;;;;;;64.13;36.80;;;;;;;1.73;100.00;95637.28;1020968;29;20035;-70
2021/04/21 01:48:49;;;;;;;60.60;34.08;;;;;;;1.72;100.00;95635.69;1026397;28;20042;-69
2021/04/21 01:49:23;;;;;;;52.97;32.47;;;;;;;1.76;100.00;95639.44;1034792;28;20053;-69
2021/04/21 01:49:53;;;;;;;56.68;33.06;;;;;;;1.79;100.00;95636.44;1032858;28;20030;-69
2021/04/21 01:50:23;;;;;;;53.17;31.77;;;;;;;1.81;100.00;95629.25;1031687;28;20023;-70
2021/04/21 01:50:54;;;;;;;54.63;32.35;;;;;;;1.74;100.00;95625.91;1026557;28;20034;-69
2021/04/21 01:51:26;;;;;;;61.33;34.78;;;;;;;1.77;100.00;95630.69;1019014;29;20122;-70
2021/04/21 01:52:05;;;;;;;61.06;34.54;;;;;;;1.78;100.00;95634.88;1018437;29;20030;-70
2021/04/21 01:52:42;;;;;;;64.98;35.32;;;;;;;1.76;100.00;95637.66;1022282;29;20045;-70
2021/04/21 01:53:18;;;;;;;56.28;32.56;;;;;;;1.75;100.00;95630.13;1022207;28;20036;-70
2021/04/21 01:53:51;;;;;;;55.38;32.44;;;;;;;1.71;100.00;95626.34;1028074;28;20166;-69
2021/04/21 01:54:23;;;;;;;58.76;34.42;;;;;;;1.71;100.00;95634.09;1023588;28;20879;-70
2021/04/21 01:54:56;;;;;;;59.62;33.20;;;;;;;1.63;100.00;95625.59;1026793;28;20029;-70
2021/04/21 01:55:42;;;;;;;58.74;33.74;;;;;;;1.72;100.00;95635.69;1021276;28;20421;-70
2021/04/21 01:56:29;;;;;;;57.36;34.00;;;;;;;1.79;100.00;95633.84;1023047;29;20109;-69
2021/04/21 01:57:07;;;;;;;59.92;33.78;;;;;;;1.71;100.00;95634.09;1018787;28;20122;-70
2021/04/21 01:57:57;;;;;;;54.90;33.10;;;;;;;1.64;100.00;95634.94;1019003;29;20047;-69
2021/04/21 01:58:52;;;;;;;57.05;32.30;;;;;;;1.70;100.00;95638.47;1026443;28;20914;-69
2021/04/21 01:59:37;;;;;;;56.70;31.40;;;;;;;1.65;100.00;95631.34;1032511;28;20034;-70
2021/04/21 02:00:12;;;;;;;60.12;34.00;;;;;;;1.60;100.00;95633.75;1035416;28;20096;-69
2021/04/21 02:00:49;;;;;;;55.78;32.47;;;;;;;1.50;100.00;95617.91;1030654;28;20054;-70
2021/04/21 02:01:56;;;;;;;57.72;32.60;;;;;;;1.59;100.00;95639.16;1030767;28;20403;-69
2021/04/21 02:02:30;;;;;;;66.10;34.30;;;;;;;1.59;100.00;95631.41;1030246;28;20599;-70
2021/04/21 02:03:14;;;;;;;57.94;32.64;;;;;;;1.55;100.00;95632.81;1032930;28;20029;-70
2021/04/21 02:03:47;;;;;;;64.62;35.26;;;;;;;1.50;100.00;95623.09;1026352;28;20587;-71
2021/04/21 02:04:20;;;;;;;58.92;33.66;;;;;;;1.60;100.00;95636.34;1022948;29;20382;-70
2021/04/21 02:04:59;;;;;;;61.50;35.42;;;;;;;1.57;100.00;95643.72;1024336;28;20034;-70
2021/04/21 02:05:33;;;;;;;62.58;34.74;;;;;;;1.56;100.00;95642.16;1020888;28;20042;-70
2021/04/21 02:06:14;;;;;;;57.38;33.08;;;;;;;1.59;100.00;95633.97;1025258;28;20123;-69
2021/04/21 02:06:52;;;;;;;61.38;35.17;;;;;;;1.54;100.00;95636.38;1026467;28;20118;-70
2021/04/21 02:07:25;;;;;;;60.34;33.92;;;;;;;1.59;100.00;95636.56;1031600;28;20423;-69
2021/04/21 02:08:10;;;;;;;60.50;34.72;;;;;;;1.65;100.00;95641.69;1031216;28;20037;-70
2021/04/21 02:08:56;;;;;;;66.16;36.66;;;;;;;1.78;100.00;95637.47;1026760;28;20022;-70
2021/04/21 02:09:57;;;;;;;70.36;38.90;;;;;;;1.92;100.00;95641.53;1026157;28;20648;-70
2021/04/21 02:10:46;;;;;;;68.50;36.90;;;;;;;1.89;100.00;95637.56;1029090;28;20057;-69
2021/04/21 02:11:19;;;;;;;69.92;37.50;;;;;;;2.00;100.00;95641.25;1033711;28;20061;-70
2021/04/21 02:11:53;;;;;;;72.46;39.88;;;;;;;1.99;100.00;95637.09;1030483;28;20114;-69
2021/04/21 02:12:38;;;;;;;65.44;38.42;;;;;;;1.97;100.00;95638.28;1036166;28;20026;-70
2021/04/21 02:13:36;;;;;;;69.58;38.38;;;;;;;2.04;100.00;95634.66;1034085;28;20450;-69
2021/04/21 02:14:56;;;;;;;67.94;38.08;;;;;;;2.08;100.00;95635.84;1029338;28;20033;-69
2021/04/21 02:15:49;;;;;;;66.40;35.06;;;;;;;2.13;100.00;95637.78;1030270;28;20218;-69
2021/04/21 02:16:26;;;;;;;71.72;36.12;;;;;;;2.16;100.00;95627.00;1025725;28;20575;-70
2021/04/21 02:17:16;;;;;;;65.30;36.68;;;;;;;2.17;100.00;95630.38;1014903;29;20591;-69
2021/04/21 02:17:56;;;;;;;61.83;35.28;;;;;;;2.26;100.00;95626.53;1012087;29;20032;-70
2021/04/21 02:18:51;;;;;;;61.95;35.15;;;;;;;2.24;100.00;95636.28;1018583;29;20028;-70
2021/04/21 02:19:27;;;;;;;63.80;36.64;;;;;;;1.98;100.00;95599.28;1023493;28;20034;-69
2021/04/21 02:20:26;;;;;;;62.96;35.86;;;;;;;2.32;100.00;95629.06;1022024;29;20599;-70
2021/04/21 02:21:08;;;;;;;69.30;36.62;;;;;;;2.29;100.00;95626.09;1030396;28;20038;-67
2021/04/21 02:22:09;;;;;;;61.58;35.80;;;;;;;2.33;100.00;95637.59;1030603;28;20011;-69
2021/04/21 02:23:02;;;;;;;64.55;37.60;;;;;;;2.35;100.00;95630.44;1028468;28;20034;-69
2021/04/21 02:23:40;;;;;;;69.12;37.56;;;;;;;2.34;100.00;95634.00;1029058;28;20047;-69
2021/04/21 02:24:45;;;;;;;65.18;35.86;;;;;;;2.35;100.00;95631.22;1025496;28;20019;-69
2021/04/21 02:25:37;;;;;;;68.46;37.28;;;;;;;2.31;100.00;95629.25;1024988;28;20042;-69
2021/04/21 02:26:18;;;;;;;68.00;37.08;;;;;;;2.30;100.00;95638.03;1032750;28;20062;-70
2021/04/21 02:26:51;;;;;;;62.68;36.46;;;;;;;2.21;100.00;95636.72;1026268;28;20023;-69
2021/04/21 02:27:49;;;;;;;71.10;38.50;;;;;;;2.22;100.00;95640.91;1026603;28;20733;-69
2021/04/21 02:28:31;;;;;;;70.08;37.30;;;;;;;2.16;100.00;95642.53;1022744;28;20078;-69
2021/04/21 02:29:04;;;;;;;66.12;36.68;;;;;;;2.11;100.00;95639.78;1022772;28;20117;-70
2021/04/21 02:29:40;;;;;;;64.04;34.96;;;;;;;2.04;100.00;95645.00;1026541;28;20524;-70
2021/04/21 02:30:14;;;;;;;66.14;37.98;;;;;;;1.94;100.00;95634.31;1027860;28;20022;-70
2021/04/21 02:30:57;;;;;;;66.46;35.62;;;;;;;1.98;100.00;95645.03;1027237;28;20631;-70
2021/04/21 02:31:33;;;;;;;64.24;36.62;;;;;;;1.96;100.00;95644.47;1019001;29;20497;-69
2021/04/21 02:32:07;;;;;;;68.48;37.50;;;;;;;1.94;100.00;95644.69;1019206;29;20058;-70
2021/04/21 02:32:49;;;;;;;69.14;38.54;;;;;;;1.89;100.00;95645.31;1021884;29;20086;-69
2021/04/21 02:33:43;;;;;;;66.42;36.46;;;;;;;1.96;100.00;95647.84;1028860;28;20129;-70
2021/04/21 02:34:34;;;;;;;63.74;35.66;;;;;;;1.92;100.00;95641.53;1027200;28;20033;-70
2021/04/21 02:35:15;;;;;;;62.97;35.25;;;;;;;1.82;100.00;95642.00;1024333;28;20027;-68
2021/04/21 02:35:50;;;;;;;68.72;37.24;;;;;;;1.83;100.00;95635.81;1019468;29;20027;-69
2021/04/21 02:36:44;;;;;;;63.66;36.16;;;;;;;1.80;100.00;95640.59;1025464;28;20037;-69
2021/04/21 02:37:38;;;;;;;66.14;35.98;;;;;;;1.73;100.00;95639.88;1023333;29;20027;-69
2021/04/21 02:38:14;;;;;;;63.64;35.72;;;;;;;1.74;100.00;95644.81;1025022;28;20019;-69
2021/04/21 02:39:04;;;;;;;69.08;36.30;;;;;;;1.73;100.00;95645.03;1023694;29;20087;-70
2021/04/21 02:39:57;;;;;;;76.82;40.12;;;;;;;1.68;100.00;95635.31;1024124;28;20042;-70
2021/04/21 02:40:46;;;;;;;73.36;37.30;;;;;;;1.64;100.00;95639.31;1015010;29;20054;-70
2021/04/21 02:41:27;;;;;;;79.70;40.26;;;;;;;1.60;100.00;95631.19;1018114;28;20809;-70
2021/04/21 02:42:08;;;;;;;72.32;39.26;;;;;;;1.63;100.00;95630.75;1019459;29;20020;-70
2021/04/21 02:43:01;;;;;;;82.42;41.86;;;;;;;1.70;100.00;95637.69;1023714;29;20027;-70
2021/04/21 02:43:40;;;;;;;74.52;38.90;;;;;;;1.74;100.00;95639.63;1016150;29;20119;-70
2021/04/21 02:44:22;;;;;;;82.38;42.66;;;;;;;1.82;100.00;95636.81;1019810;29;20011;-69
2021/04/21 02:45:08;;;;;;;81.22;42.08;;;;;;;1.87;100.00;95634.38;1030844;28;20488;-69
2021/04/21 02:45:54;;;;;;;75.00;39.42;;;;;;;1.77;100.00;95628.09;1043637;28;20009;-70
2021/04/21 02:46:59;;;;;;;77.58;39.88;;;;;;;1.81;100.00;95639.59;1034434;28;20018;-69
2021/04/21 02:47:47;;;;;;;73.18;38.60;;;;;;;1.78;100.00;95642.63;1027075;28;20014;-69
2021/04/21 02:48:23;;;;;;;77.44;39.84;;;;;;;1.72;100.00;95636.50;1025831;28;21094;-70
2021/04/21 02:48:58;;;;;;;74.48;39.12;;;;;;;1.70;100.00;95640.28;1023150;28;20011;-69
2021/04/21 02:49:39;;;;;;;71.06;38.02;;;;;;;1.67;100.00;95643.28;1023589;29;20543;-69
2021/04/21 02:50:16;;;;;;;77.90;41.85;;;;;;;1.67;100.00;95638.09;1015148;29;20016;-69
2021/04/21 02:50:48;;;;;;;74.06;39.72;;;;;;;1.67;100.00;95638.09;1018665;29;20551;-70
2021/04/21 02:51:21;;;;;;;71.86;38.32;;;;;;;1.63;100.00;95632.56;1024226;28;20043;-69
2021/04/21 02:52:03;;;;;;;81.12;42.30;;;;;;;1.67;100.00;95630.34;1031176;28;20014;-69
2021/04/21 02:53:04;;;;;;;80.04;42.48;;;;;;;1.67;100.00;95638.09;1029534;28;20098;-69
2021/04/21 02:54:04;;;;;;;71.88;38.55;;;;;;;1.69;100.00;95639.50;1030085;28;20030;-70